sensor_id;sensor_type;location;lat;lon;timestamp;P1;durP1;ratioP1;P2;durP2;ratioP2
40959;SDS011;27842;52.272;8.052;2023-02-22T00:00:27;29.63;;;14.02;;
40959;SDS011;27842;52.272;8.052;2023-02-22T00:03:21;30.20;;;14.80;;
40959;SDS011;27842;52.272;8.052;2023-02-22T00:05:55;29.67;;;14.18;;
40959;SDS011;27842;52.272;8.052;2023-02-22T00:08:23;32.50;;;15.65;;
40959;SDS011;27842;52.272;8.052;2023-02-22T00:10:54;33.30;;;16.38;;
40959;SDS011;27842;52.272;8.052;2023-02-22T00:13:23;32.45;;;15.25;;
40959;SDS011;27842;52.272;8.052;2023-02-22T00:15:50;30.63;;;15.02;;
40959;SDS011;27842;52.272;8.052;2023-02-22T00:18:16;33.38;;;15.63;;
40959;SDS011;27842;52.272;8.052;2023-02-22T00:20:43;31.98;;;16.08;;
40959;SDS011;27842;52.272;8.052;2023-02-22T00:23:15;34.55;;;14.63;;
40959;SDS011;27842;52.272;8.052;2023-02-22T00:25:46;32.72;;;15.20;;
40959;SDS011;27842;52.272;8.052;2023-02-22T00:28:13;30.65;;;14.68;;
40959;SDS011;27842;52.272;8.052;2023-02-22T00:30:39;31.25;;;13.98;;
40959;SDS011;27842;52.272;8.052;2023-02-22T00:33:09;25.98;;;12.27;;
40959;SDS011;27842;52.272;8.052;2023-02-22T00:35:38;29.52;;;12.52;;
40959;SDS011;27842;52.272;8.052;2023-02-22T00:38:04;26.50;;;12.57;;
40959;SDS011;27842;52.272;8.052;2023-02-22T00:40:31;29.58;;;14.10;;
40959;SDS011;27842;52.272;8.052;2023-02-22T00:42:58;29.00;;;12.93;;
40959;SDS011;27842;52.272;8.052;2023-02-22T00:45:26;29.13;;;13.52;;
40959;SDS011;27842;52.272;8.052;2023-02-22T00:47:53;32.03;;;15.25;;
40959;SDS011;27842;52.272;8.052;2023-02-22T00:50:20;30.63;;;15.02;;
40959;SDS011;27842;52.272;8.052;2023-02-22T00:52:46;33.50;;;13.93;;
40959;SDS011;27842;52.272;8.052;2023-02-22T00:55:17;31.20;;;13.80;;
40959;SDS011;27842;52.272;8.052;2023-02-22T00:57:48;32.05;;;15.13;;
40959;SDS011;27842;52.272;8.052;2023-02-22T01:00:19;33.80;;;14.50;;
40959;SDS011;27842;52.272;8.052;2023-02-22T01:02:59;31.92;;;14.73;;
40959;SDS011;27842;52.272;8.052;2023-02-22T01:05:25;32.83;;;14.60;;
40959;SDS011;27842;52.272;8.052;2023-02-22T01:07:53;34.83;;;15.40;;
40959;SDS011;27842;52.272;8.052;2023-02-22T01:10:20;34.97;;;15.48;;
40959;SDS011;27842;52.272;8.052;2023-02-22T01:12:46;36.70;;;15.70;;
40959;SDS011;27842;52.272;8.052;2023-02-22T01:15:14;33.60;;;15.45;;
40959;SDS011;27842;52.272;8.052;2023-02-22T01:17:44;35.10;;;16.00;;
40959;SDS011;27842;52.272;8.052;2023-02-22T01:20:10;35.75;;;16.52;;
40959;SDS011;27842;52.272;8.052;2023-02-22T01:22:39;41.30;;;17.25;;
40959;SDS011;27842;52.272;8.052;2023-02-22T01:25:09;37.25;;;18.08;;
40959;SDS011;27842;52.272;8.052;2023-02-22T01:27:37;38.95;;;19.00;;
40959;SDS011;27842;52.272;8.052;2023-02-22T01:30:03;38.35;;;18.27;;
40959;SDS011;27842;52.272;8.052;2023-02-22T01:32:35;41.72;;;20.40;;
40959;SDS011;27842;52.272;8.052;2023-02-22T01:35:04;41.00;;;19.88;;
40959;SDS011;27842;52.272;8.052;2023-02-22T01:37:32;41.92;;;20.08;;
40959;SDS011;27842;52.272;8.052;2023-02-22T01:39:58;42.67;;;20.02;;
40959;SDS011;27842;52.272;8.052;2023-02-22T01:42:24;44.75;;;21.20;;
40959;SDS011;27842;52.272;8.052;2023-02-22T01:47:54;46.08;;;22.10;;
40959;SDS011;27842;52.272;8.052;2023-02-22T01:50:42;46.13;;;22.60;;
40959;SDS011;27842;52.272;8.052;2023-02-22T01:53:35;51.67;;;23.42;;
40959;SDS011;27842;52.272;8.052;2023-02-22T01:56:14;50.70;;;23.63;;
40959;SDS011;27842;52.272;8.052;2023-02-22T01:58:42;48.58;;;23.83;;
40959;SDS011;27842;52.272;8.052;2023-02-22T02:01:12;50.38;;;24.63;;
40959;SDS011;27842;52.272;8.052;2023-02-22T02:03:39;46.45;;;23.65;;
40959;SDS011;27842;52.272;8.052;2023-02-22T02:06:07;48.55;;;24.27;;
40959;SDS011;27842;52.272;8.052;2023-02-22T02:11:26;51.45;;;24.92;;
40959;SDS011;27842;52.272;8.052;2023-02-22T02:13:53;49.03;;;24.67;;
40959;SDS011;27842;52.272;8.052;2023-02-22T02:16:24;48.50;;;24.67;;
40959;SDS011;27842;52.272;8.052;2023-02-22T02:18:55;52.38;;;26.30;;
40959;SDS011;27842;52.272;8.052;2023-02-22T02:24:47;52.90;;;25.25;;
40959;SDS011;27842;52.272;8.052;2023-02-22T02:27:25;50.83;;;24.63;;
40959;SDS011;27842;52.272;8.052;2023-02-22T02:30:10;50.75;;;25.00;;
40959;SDS011;27842;52.272;8.052;2023-02-22T02:33:17;49.38;;;24.17;;
40959;SDS011;27842;52.272;8.052;2023-02-22T02:36:00;52.60;;;26.25;;
40959;SDS011;27842;52.272;8.052;2023-02-22T02:41:17;52.10;;;25.80;;
40959;SDS011;27842;52.272;8.052;2023-02-22T02:44:34;53.03;;;24.80;;
40959;SDS011;27842;52.272;8.052;2023-02-22T02:46:49;51.22;;;25.02;;
40959;SDS011;27842;52.272;8.052;2023-02-22T02:49:24;51.08;;;25.85;;
40959;SDS011;27842;52.272;8.052;2023-02-22T02:52:00;49.53;;;24.75;;
40959;SDS011;27842;52.272;8.052;2023-02-22T02:54:28;48.15;;;24.88;;
40959;SDS011;27842;52.272;8.052;2023-02-22T02:56:55;48.72;;;24.05;;
40959;SDS011;27842;52.272;8.052;2023-02-22T02:59:22;49.75;;;24.38;;
40959;SDS011;27842;52.272;8.052;2023-02-22T03:04:28;51.50;;;25.40;;
40959;SDS011;27842;52.272;8.052;2023-02-22T03:07:27;48.08;;;24.52;;
40959;SDS011;27842;52.272;8.052;2023-02-22T03:10:16;48.75;;;24.90;;
40959;SDS011;27842;52.272;8.052;2023-02-22T03:18:08;50.13;;;24.55;;
40959;SDS011;27842;52.272;8.052;2023-02-22T03:20:52;51.38;;;24.13;;
40959;SDS011;27842;52.272;8.052;2023-02-22T03:23:28;50.20;;;24.42;;
40959;SDS011;27842;52.272;8.052;2023-02-22T03:26:06;48.67;;;24.90;;
40959;SDS011;27842;52.272;8.052;2023-02-22T03:28:37;49.35;;;24.77;;
40959;SDS011;27842;52.272;8.052;2023-02-22T03:31:08;50.47;;;25.05;;
40959;SDS011;27842;52.272;8.052;2023-02-22T03:33:42;49.38;;;24.70;;
40959;SDS011;27842;52.272;8.052;2023-02-22T03:36:21;48.58;;;24.13;;
40959;SDS011;27842;52.272;8.052;2023-02-22T03:38:51;49.70;;;24.17;;
40959;SDS011;27842;52.272;8.052;2023-02-22T03:41:21;48.60;;;24.15;;
40959;SDS011;27842;52.272;8.052;2023-02-22T03:43:49;45.60;;;23.27;;
40959;SDS011;27842;52.272;8.052;2023-02-22T03:46:27;48.67;;;23.85;;
40959;SDS011;27842;52.272;8.052;2023-02-22T03:51:44;47.92;;;24.05;;
40959;SDS011;27842;52.272;8.052;2023-02-22T03:54:10;50.00;;;23.80;;
40959;SDS011;27842;52.272;8.052;2023-02-22T03:56:56;46.50;;;24.13;;
40959;SDS011;27842;52.272;8.052;2023-02-22T03:59:24;46.75;;;23.45;;
40959;SDS011;27842;52.272;8.052;2023-02-22T04:01:55;48.25;;;23.88;;
40959;SDS011;27842;52.272;8.052;2023-02-22T04:04:21;47.65;;;22.95;;
40959;SDS011;27842;52.272;8.052;2023-02-22T04:06:48;46.45;;;23.60;;
40959;SDS011;27842;52.272;8.052;2023-02-22T04:09:14;47.63;;;22.65;;
40959;SDS011;27842;52.272;8.052;2023-02-22T04:11:41;44.70;;;22.10;;
40959;SDS011;27842;52.272;8.052;2023-02-22T04:14:07;45.97;;;22.88;;
40959;SDS011;27842;52.272;8.052;2023-02-22T04:16:32;44.55;;;22.30;;
40959;SDS011;27842;52.272;8.052;2023-02-22T04:18:58;46.70;;;22.40;;
40959;SDS011;27842;52.272;8.052;2023-02-22T04:21:24;43.83;;;21.40;;
40959;SDS011;27842;52.272;8.052;2023-02-22T04:23:49;44.22;;;21.45;;
40959;SDS011;27842;52.272;8.052;2023-02-22T04:26:15;45.67;;;22.23;;
40959;SDS011;27842;52.272;8.052;2023-02-22T04:28:41;43.67;;;21.50;;
40959;SDS011;27842;52.272;8.052;2023-02-22T04:31:06;43.33;;;20.92;;
40959;SDS011;27842;52.272;8.052;2023-02-22T04:33:32;41.10;;;20.33;;
40959;SDS011;27842;52.272;8.052;2023-02-22T04:35:58;43.13;;;21.30;;
40959;SDS011;27842;52.272;8.052;2023-02-22T04:38:23;46.63;;;22.40;;
40959;SDS011;27842;52.272;8.052;2023-02-22T04:43:18;44.28;;;21.67;;
40959;SDS011;27842;52.272;8.052;2023-02-22T04:45:44;43.03;;;21.48;;
40959;SDS011;27842;52.272;8.052;2023-02-22T04:48:10;44.50;;;20.65;;
40959;SDS011;27842;52.272;8.052;2023-02-22T04:50:36;40.28;;;19.15;;
40959;SDS011;27842;52.272;8.052;2023-02-22T04:53:01;41.90;;;21.77;;
40959;SDS011;27842;52.272;8.052;2023-02-22T04:55:27;43.47;;;21.58;;
40959;SDS011;27842;52.272;8.052;2023-02-22T04:57:53;43.72;;;21.40;;
40959;SDS011;27842;52.272;8.052;2023-02-22T05:00:20;41.03;;;21.73;;
40959;SDS011;27842;52.272;8.052;2023-02-22T05:02:46;45.30;;;22.05;;
40959;SDS011;27842;52.272;8.052;2023-02-22T05:05:16;42.20;;;21.58;;
40959;SDS011;27842;52.272;8.052;2023-02-22T05:07:43;40.80;;;20.70;;
40959;SDS011;27842;52.272;8.052;2023-02-22T05:10:09;44.92;;;22.25;;
40959;SDS011;27842;52.272;8.052;2023-02-22T05:12:35;43.15;;;21.10;;
40959;SDS011;27842;52.272;8.052;2023-02-22T05:15:01;43.60;;;21.75;;
40959;SDS011;27842;52.272;8.052;2023-02-22T05:17:31;41.78;;;20.95;;
40959;SDS011;27842;52.272;8.052;2023-02-22T05:19:56;40.20;;;21.05;;
40959;SDS011;27842;52.272;8.052;2023-02-22T05:22:22;42.55;;;20.02;;
40959;SDS011;27842;52.272;8.052;2023-02-22T05:24:48;43.80;;;20.63;;
40959;SDS011;27842;52.272;8.052;2023-02-22T05:27:16;44.80;;;22.35;;
40959;SDS011;27842;52.272;8.052;2023-02-22T05:29:42;43.63;;;21.42;;
40959;SDS011;27842;52.272;8.052;2023-02-22T05:32:07;40.75;;;21.50;;
40959;SDS011;27842;52.272;8.052;2023-02-22T05:34:33;41.50;;;21.30;;
40959;SDS011;27842;52.272;8.052;2023-02-22T05:36:59;42.50;;;21.20;;
40959;SDS011;27842;52.272;8.052;2023-02-22T05:39:24;45.15;;;23.58;;
40959;SDS011;27842;52.272;8.052;2023-02-22T05:41:50;44.17;;;22.77;;
40959;SDS011;27842;52.272;8.052;2023-02-22T05:44:15;42.67;;;21.83;;
40959;SDS011;27842;52.272;8.052;2023-02-22T05:46:41;41.88;;;20.90;;
40959;SDS011;27842;52.272;8.052;2023-02-22T05:49:07;43.42;;;21.77;;
40959;SDS011;27842;52.272;8.052;2023-02-22T05:51:32;44.17;;;22.42;;
40959;SDS011;27842;52.272;8.052;2023-02-22T05:53:58;45.55;;;22.80;;
40959;SDS011;27842;52.272;8.052;2023-02-22T05:56:24;44.72;;;22.23;;
40959;SDS011;27842;52.272;8.052;2023-02-22T05:58:52;44.97;;;22.48;;
40959;SDS011;27842;52.272;8.052;2023-02-22T06:01:18;46.63;;;22.73;;
40959;SDS011;27842;52.272;8.052;2023-02-22T06:03:51;45.30;;;22.95;;
40959;SDS011;27842;52.272;8.052;2023-02-22T06:06:16;46.47;;;22.35;;
40959;SDS011;27842;52.272;8.052;2023-02-22T06:08:44;43.97;;;22.42;;
40959;SDS011;27842;52.272;8.052;2023-02-22T06:11:10;47.42;;;24.13;;
40959;SDS011;27842;52.272;8.052;2023-02-22T06:13:36;41.72;;;22.52;;
40959;SDS011;27842;52.272;8.052;2023-02-22T06:16:02;44.38;;;22.65;;
40959;SDS011;27842;52.272;8.052;2023-02-22T06:18:28;43.47;;;23.08;;
40959;SDS011;27842;52.272;8.052;2023-02-22T06:20:57;42.10;;;21.80;;
40959;SDS011;27842;52.272;8.052;2023-02-22T06:23:23;49.58;;;23.58;;
40959;SDS011;27842;52.272;8.052;2023-02-22T06:25:49;44.03;;;21.25;;
40959;SDS011;27842;52.272;8.052;2023-02-22T06:28:15;41.88;;;20.95;;
40959;SDS011;27842;52.272;8.052;2023-02-22T06:30:40;38.83;;;19.20;;
40959;SDS011;27842;52.272;8.052;2023-02-22T06:33:09;39.47;;;20.57;;
40959;SDS011;27842;52.272;8.052;2023-02-22T06:35:35;40.30;;;20.13;;
40959;SDS011;27842;52.272;8.052;2023-02-22T06:38:01;42.70;;;20.25;;
40959;SDS011;27842;52.272;8.052;2023-02-22T06:40:27;39.65;;;19.70;;
40959;SDS011;27842;52.272;8.052;2023-02-22T06:42:53;37.22;;;19.33;;
40959;SDS011;27842;52.272;8.052;2023-02-22T06:45:19;38.63;;;19.83;;
40959;SDS011;27842;52.272;8.052;2023-02-22T06:47:45;38.50;;;19.37;;
40959;SDS011;27842;52.272;8.052;2023-02-22T06:50:19;37.83;;;19.20;;
40959;SDS011;27842;52.272;8.052;2023-02-22T06:52:46;36.85;;;19.08;;
40959;SDS011;27842;52.272;8.052;2023-02-22T06:55:15;36.65;;;18.13;;
40959;SDS011;27842;52.272;8.052;2023-02-22T06:57:42;36.38;;;18.42;;
40959;SDS011;27842;52.272;8.052;2023-02-22T07:00:08;38.30;;;19.08;;
40959;SDS011;27842;52.272;8.052;2023-02-22T07:02:35;34.90;;;17.42;;
40959;SDS011;27842;52.272;8.052;2023-02-22T07:05:01;40.22;;;19.50;;
40959;SDS011;27842;52.272;8.052;2023-02-22T07:07:26;39.15;;;19.23;;
40959;SDS011;27842;52.272;8.052;2023-02-22T07:09:53;43.08;;;20.45;;
40959;SDS011;27842;52.272;8.052;2023-02-22T07:12:19;39.78;;;21.00;;
40959;SDS011;27842;52.272;8.052;2023-02-22T07:14:45;41.20;;;20.35;;
40959;SDS011;27842;52.272;8.052;2023-02-22T07:17:11;41.15;;;21.48;;
40959;SDS011;27842;52.272;8.052;2023-02-22T07:19:40;40.00;;;21.20;;
40959;SDS011;27842;52.272;8.052;2023-02-22T07:22:07;42.67;;;22.65;;
40959;SDS011;27842;52.272;8.052;2023-02-22T07:24:33;42.20;;;22.30;;
40959;SDS011;27842;52.272;8.052;2023-02-22T07:26:59;48.72;;;22.67;;
40959;SDS011;27842;52.272;8.052;2023-02-22T07:29:25;47.55;;;24.05;;
40959;SDS011;27842;52.272;8.052;2023-02-22T07:31:51;44.42;;;22.00;;
40959;SDS011;27842;52.272;8.052;2023-02-22T07:34:16;47.25;;;23.05;;
40959;SDS011;27842;52.272;8.052;2023-02-22T07:36:42;42.72;;;22.25;;
40959;SDS011;27842;52.272;8.052;2023-02-22T07:39:08;47.80;;;24.52;;
40959;SDS011;27842;52.272;8.052;2023-02-22T07:41:34;45.73;;;23.13;;
40959;SDS011;27842;52.272;8.052;2023-02-22T07:43:59;48.40;;;23.07;;
40959;SDS011;27842;52.272;8.052;2023-02-22T07:46:25;47.17;;;25.60;;
40959;SDS011;27842;52.272;8.052;2023-02-22T07:48:50;46.90;;;24.83;;
40959;SDS011;27842;52.272;8.052;2023-02-22T07:51:16;46.05;;;24.10;;
40959;SDS011;27842;52.272;8.052;2023-02-22T07:53:44;45.58;;;24.42;;
40959;SDS011;27842;52.272;8.052;2023-02-22T07:56:10;50.45;;;24.05;;
40959;SDS011;27842;52.272;8.052;2023-02-22T07:58:36;44.17;;;23.17;;
40959;SDS011;27842;52.272;8.052;2023-02-22T08:01:01;47.83;;;23.70;;
40959;SDS011;27842;52.272;8.052;2023-02-22T08:03:29;45.85;;;22.52;;
40959;SDS011;27842;52.272;8.052;2023-02-22T08:06:00;41.00;;;21.40;;
40959;SDS011;27842;52.272;8.052;2023-02-22T08:08:27;48.38;;;22.08;;
40959;SDS011;27842;52.272;8.052;2023-02-22T08:10:52;42.83;;;20.95;;
40959;SDS011;27842;52.272;8.052;2023-02-22T08:13:18;44.38;;;21.02;;
40959;SDS011;27842;52.272;8.052;2023-02-22T08:15:46;41.97;;;21.25;;
40959;SDS011;27842;52.272;8.052;2023-02-22T08:18:13;40.95;;;20.35;;
40959;SDS011;27842;52.272;8.052;2023-02-22T08:20:41;39.95;;;20.15;;
40959;SDS011;27842;52.272;8.052;2023-02-22T08:23:08;41.90;;;20.03;;
40959;SDS011;27842;52.272;8.052;2023-02-22T08:25:35;37.77;;;19.23;;
40959;SDS011;27842;52.272;8.052;2023-02-22T08:28:02;36.70;;;18.90;;
40959;SDS011;27842;52.272;8.052;2023-02-22T08:30:33;38.03;;;20.00;;
40959;SDS011;27842;52.272;8.052;2023-02-22T08:33:00;33.07;;;17.37;;
40959;SDS011;27842;52.272;8.052;2023-02-22T08:35:26;34.30;;;17.35;;
40959;SDS011;27842;52.272;8.052;2023-02-22T08:37:55;32.50;;;17.00;;
40959;SDS011;27842;52.272;8.052;2023-02-22T08:40:23;33.67;;;17.35;;
40959;SDS011;27842;52.272;8.052;2023-02-22T08:42:50;31.87;;;16.70;;
40959;SDS011;27842;52.272;8.052;2023-02-22T08:45:16;32.58;;;16.55;;
40959;SDS011;27842;52.272;8.052;2023-02-22T08:47:41;32.80;;;16.67;;
40959;SDS011;27842;52.272;8.052;2023-02-22T08:50:08;32.33;;;16.00;;
40959;SDS011;27842;52.272;8.052;2023-02-22T08:52:44;30.52;;;16.30;;
40959;SDS011;27842;52.272;8.052;2023-02-22T08:55:09;33.40;;;15.85;;
40959;SDS011;27842;52.272;8.052;2023-02-22T08:57:35;30.52;;;15.93;;
40959;SDS011;27842;52.272;8.052;2023-02-22T09:00:01;31.92;;;16.38;;
40959;SDS011;27842;52.272;8.052;2023-02-22T09:02:28;32.88;;;16.13;;
40959;SDS011;27842;52.272;8.052;2023-02-22T09:04:53;31.17;;;15.93;;
40959;SDS011;27842;52.272;8.052;2023-02-22T09:07:21;31.30;;;15.80;;
40959;SDS011;27842;52.272;8.052;2023-02-22T09:09:46;32.15;;;16.30;;
40959;SDS011;27842;52.272;8.052;2023-02-22T09:12:13;31.10;;;15.32;;
40959;SDS011;27842;52.272;8.052;2023-02-22T09:14:38;31.83;;;17.50;;
40959;SDS011;27842;52.272;8.052;2023-02-22T09:17:04;34.13;;;16.65;;
40959;SDS011;27842;52.272;8.052;2023-02-22T09:19:30;30.58;;;15.57;;
40959;SDS011;27842;52.272;8.052;2023-02-22T09:21:56;29.90;;;15.68;;
40959;SDS011;27842;52.272;8.052;2023-02-22T09:24:23;30.17;;;15.85;;
40959;SDS011;27842;52.272;8.052;2023-02-22T09:26:50;30.88;;;15.48;;
40959;SDS011;27842;52.272;8.052;2023-02-22T09:29:22;30.67;;;15.40;;
40959;SDS011;27842;52.272;8.052;2023-02-22T09:31:50;29.35;;;15.23;;
40959;SDS011;27842;52.272;8.052;2023-02-22T09:34:17;31.25;;;15.75;;
40959;SDS011;27842;52.272;8.052;2023-02-22T09:36:44;32.33;;;16.35;;
40959;SDS011;27842;52.272;8.052;2023-02-22T09:39:11;31.15;;;15.93;;
40959;SDS011;27842;52.272;8.052;2023-02-22T09:41:55;29.67;;;15.30;;
40959;SDS011;27842;52.272;8.052;2023-02-22T09:47:44;35.53;;;16.90;;
40959;SDS011;27842;52.272;8.052;2023-02-22T09:50:33;32.10;;;16.63;;
40959;SDS011;27842;52.272;8.052;2023-02-22T09:53:02;32.30;;;17.00;;
40959;SDS011;27842;52.272;8.052;2023-02-22T10:01:08;34.30;;;17.53;;
40959;SDS011;27842;52.272;8.052;2023-02-22T10:03:59;34.97;;;17.95;;
40959;SDS011;27842;52.272;8.052;2023-02-22T10:06:42;32.15;;;16.33;;
40959;SDS011;27842;52.272;8.052;2023-02-22T10:09:29;37.67;;;18.02;;
40959;SDS011;27842;52.272;8.052;2023-02-22T10:12:14;32.90;;;16.55;;
40959;SDS011;27842;52.272;8.052;2023-02-22T10:15:09;32.65;;;17.10;;
40959;SDS011;27842;52.272;8.052;2023-02-22T10:23:33;36.63;;;17.25;;
40959;SDS011;27842;52.272;8.052;2023-02-22T10:26:15;33.55;;;17.17;;
40959;SDS011;27842;52.272;8.052;2023-02-22T10:31:39;32.10;;;15.95;;
40959;SDS011;27842;52.272;8.052;2023-02-22T10:34:15;29.48;;;15.73;;
40959;SDS011;27842;52.272;8.052;2023-02-22T10:36:45;34.88;;;16.30;;
40959;SDS011;27842;52.272;8.052;2023-02-22T10:39:23;30.90;;;16.45;;
40959;SDS011;27842;52.272;8.052;2023-02-22T10:42:03;35.13;;;17.42;;
40959;SDS011;27842;52.272;8.052;2023-02-22T10:46:59;30.83;;;15.40;;
40959;SDS011;27842;52.272;8.052;2023-02-22T10:49:30;32.17;;;17.00;;
40959;SDS011;27842;52.272;8.052;2023-02-22T10:52:01;28.77;;;15.38;;
40959;SDS011;27842;52.272;8.052;2023-02-22T10:54:38;30.33;;;16.33;;
40959;SDS011;27842;52.272;8.052;2023-02-22T10:57:06;32.42;;;18.05;;
40959;SDS011;27842;52.272;8.052;2023-02-22T10:59:33;30.63;;;17.00;;
40959;SDS011;27842;52.272;8.052;2023-02-22T11:02:07;31.88;;;15.52;;
40959;SDS011;27842;52.272;8.052;2023-02-22T11:04:49;29.55;;;15.35;;
40959;SDS011;27842;52.272;8.052;2023-02-22T11:09:47;32.58;;;16.02;;
40959;SDS011;27842;52.272;8.052;2023-02-22T11:12:19;29.23;;;15.95;;
40959;SDS011;27842;52.272;8.052;2023-02-22T11:14:50;29.80;;;16.00;;
40959;SDS011;27842;52.272;8.052;2023-02-22T11:17:17;31.70;;;15.23;;
40959;SDS011;27842;52.272;8.052;2023-02-22T11:19:48;29.48;;;15.77;;
40959;SDS011;27842;52.272;8.052;2023-02-22T11:22:22;29.27;;;15.20;;
40959;SDS011;27842;52.272;8.052;2023-02-22T11:25:02;27.20;;;14.70;;
40959;SDS011;27842;52.272;8.052;2023-02-22T11:27:36;29.48;;;15.57;;
40959;SDS011;27842;52.272;8.052;2023-02-22T11:30:07;29.70;;;15.93;;
40959;SDS011;27842;52.272;8.052;2023-02-22T11:32:34;28.75;;;15.10;;
40959;SDS011;27842;52.272;8.052;2023-02-22T11:35:17;28.65;;;15.88;;
40959;SDS011;27842;52.272;8.052;2023-02-22T11:37:50;31.10;;;14.80;;
40959;SDS011;27842;52.272;8.052;2023-02-22T11:40:17;29.05;;;15.00;;
40959;SDS011;27842;52.272;8.052;2023-02-22T11:42:46;26.55;;;13.80;;
40959;SDS011;27842;52.272;8.052;2023-02-22T11:45:18;29.65;;;13.43;;
40959;SDS011;27842;52.272;8.052;2023-02-22T11:47:58;26.35;;;13.35;;
40959;SDS011;27842;52.272;8.052;2023-02-22T11:56:06;27.75;;;12.10;;
40959;SDS011;27842;52.272;8.052;2023-02-22T11:59:04;24.27;;;11.32;;
40959;SDS011;27842;52.272;8.052;2023-02-22T12:01:53;24.83;;;12.23;;
40959;SDS011;27842;52.272;8.052;2023-02-22T12:04:46;25.27;;;11.05;;
40959;SDS011;27842;52.272;8.052;2023-02-22T12:12:59;27.88;;;10.77;;
40959;SDS011;27842;52.272;8.052;2023-02-22T12:15:59;24.52;;;11.25;;
40959;SDS011;27842;52.272;8.052;2023-02-22T12:21:02;25.10;;;10.80;;
40959;SDS011;27842;52.272;8.052;2023-02-22T12:26:19;23.08;;;10.40;;
40959;SDS011;27842;52.272;8.052;2023-02-22T12:29:02;23.15;;;10.73;;
40959;SDS011;27842;52.272;8.052;2023-02-22T12:31:43;24.58;;;11.13;;
40959;SDS011;27842;52.272;8.052;2023-02-22T12:40:17;25.63;;;10.15;;
40959;SDS011;27842;52.272;8.052;2023-02-22T12:43:11;21.30;;;9.40;;
40959;SDS011;27842;52.272;8.052;2023-02-22T12:45:51;18.38;;;8.40;;
40959;SDS011;27842;52.272;8.052;2023-02-22T12:51:27;23.00;;;9.93;;
40959;SDS011;27842;52.272;8.052;2023-02-22T12:56:54;20.58;;;8.95;;
40959;SDS011;27842;52.272;8.052;2023-02-22T13:04:54;21.88;;;10.07;;
40959;SDS011;27842;52.272;8.052;2023-02-22T13:18:28;20.30;;;8.43;;
40959;SDS011;27842;52.272;8.052;2023-02-22T13:21:24;19.58;;;7.97;;
40959;SDS011;27842;52.272;8.052;2023-02-22T13:26:41;18.58;;;7.85;;
40959;SDS011;27842;52.272;8.052;2023-02-22T13:34:56;19.30;;;7.72;;
40959;SDS011;27842;52.272;8.052;2023-02-22T13:37:38;18.70;;;7.97;;
40959;SDS011;27842;52.272;8.052;2023-02-22T13:53:16;20.67;;;8.60;;
40959;SDS011;27842;52.272;8.052;2023-02-22T13:55:51;20.95;;;9.23;;
40959;SDS011;27842;52.272;8.052;2023-02-22T13:58:21;20.35;;;8.82;;
40959;SDS011;27842;52.272;8.052;2023-02-22T14:03:32;23.13;;;9.50;;
40959;SDS011;27842;52.272;8.052;2023-02-22T14:06:10;22.80;;;8.93;;
40959;SDS011;27842;52.272;8.052;2023-02-22T14:09:08;21.73;;;9.10;;
40959;SDS011;27842;52.272;8.052;2023-02-22T14:11:58;21.95;;;9.00;;
40959;SDS011;27842;52.272;8.052;2023-02-22T14:14:24;21.25;;;8.88;;
40959;SDS011;27842;52.272;8.052;2023-02-22T14:17:14;25.95;;;9.70;;
40959;SDS011;27842;52.272;8.052;2023-02-22T14:19:59;22.10;;;10.32;;
40959;SDS011;27842;52.272;8.052;2023-02-22T14:22:26;22.88;;;9.93;;
40959;SDS011;27842;52.272;8.052;2023-02-22T14:24:53;21.75;;;9.95;;
40959;SDS011;27842;52.272;8.052;2023-02-22T14:27:20;23.67;;;11.30;;
40959;SDS011;27842;52.272;8.052;2023-02-22T14:29:50;22.25;;;9.45;;
40959;SDS011;27842;52.272;8.052;2023-02-22T14:32:28;22.50;;;9.48;;
40959;SDS011;27842;52.272;8.052;2023-02-22T14:34:57;19.55;;;9.07;;
40959;SDS011;27842;52.272;8.052;2023-02-22T14:37:28;20.67;;;9.60;;
40959;SDS011;27842;52.272;8.052;2023-02-22T14:40:02;21.60;;;9.55;;
40959;SDS011;27842;52.272;8.052;2023-02-22T14:42:38;22.13;;;10.07;;
40959;SDS011;27842;52.272;8.052;2023-02-22T14:47:38;19.63;;;9.40;;
40959;SDS011;27842;52.272;8.052;2023-02-22T14:50:17;23.90;;;9.40;;
40959;SDS011;27842;52.272;8.052;2023-02-22T14:52:47;21.90;;;10.00;;
40959;SDS011;27842;52.272;8.052;2023-02-22T14:55:29;22.70;;;9.93;;
40959;SDS011;27842;52.272;8.052;2023-02-22T14:58:01;20.17;;;9.53;;
40959;SDS011;27842;52.272;8.052;2023-02-22T15:00:39;22.45;;;10.27;;
40959;SDS011;27842;52.272;8.052;2023-02-22T15:03:17;22.48;;;10.15;;
40959;SDS011;27842;52.272;8.052;2023-02-22T15:05:51;21.42;;;9.88;;
40959;SDS011;27842;52.272;8.052;2023-02-22T15:08:17;23.85;;;10.40;;
40959;SDS011;27842;52.272;8.052;2023-02-22T15:10:52;21.48;;;10.30;;
40959;SDS011;27842;52.272;8.052;2023-02-22T15:13:19;22.08;;;11.15;;
40959;SDS011;27842;52.272;8.052;2023-02-22T15:15:54;23.23;;;10.75;;
40959;SDS011;27842;52.272;8.052;2023-02-22T15:18:36;25.80;;;10.88;;
40959;SDS011;27842;52.272;8.052;2023-02-22T15:21:06;22.25;;;10.13;;
40959;SDS011;27842;52.272;8.052;2023-02-22T15:26:18;24.83;;;10.52;;
40959;SDS011;27842;52.272;8.052;2023-02-22T15:28:54;22.13;;;9.90;;
40959;SDS011;27842;52.272;8.052;2023-02-22T15:31:29;21.67;;;9.82;;
40959;SDS011;27842;52.272;8.052;2023-02-22T15:34:13;21.27;;;10.40;;
40959;SDS011;27842;52.272;8.052;2023-02-22T15:36:54;23.92;;;9.63;;
40959;SDS011;27842;52.272;8.052;2023-02-22T15:42:03;22.27;;;9.30;;
40959;SDS011;27842;52.272;8.052;2023-02-22T15:44:49;21.05;;;10.20;;
40959;SDS011;27842;52.272;8.052;2023-02-22T15:47:20;27.83;;;9.90;;
40959;SDS011;27842;52.272;8.052;2023-02-22T15:52:39;27.98;;;10.10;;
40959;SDS011;27842;52.272;8.052;2023-02-22T15:55:13;26.90;;;11.35;;
40959;SDS011;27842;52.272;8.052;2023-02-22T15:57:41;24.52;;;10.15;;
40959;SDS011;27842;52.272;8.052;2023-02-22T16:00:16;20.55;;;9.77;;
40959;SDS011;27842;52.272;8.052;2023-02-22T16:03:12;22.00;;;9.23;;
40959;SDS011;27842;52.272;8.052;2023-02-22T16:05:47;21.20;;;9.57;;
40959;SDS011;27842;52.272;8.052;2023-02-22T16:13:22;23.20;;;10.48;;
40959;SDS011;27842;52.272;8.052;2023-02-22T16:18:27;21.57;;;10.07;;
40959;SDS011;27842;52.272;8.052;2023-02-22T16:23:53;23.08;;;9.18;;
40959;SDS011;27842;52.272;8.052;2023-02-22T16:31:29;25.55;;;10.10;;
40959;SDS011;27842;52.272;8.052;2023-02-22T16:34:01;21.83;;;10.32;;
40959;SDS011;27842;52.272;8.052;2023-02-22T16:36:44;19.90;;;9.13;;
40959;SDS011;27842;52.272;8.052;2023-02-22T16:41:51;23.55;;;11.10;;
40959;SDS011;27842;52.272;8.052;2023-02-22T16:44:18;22.17;;;9.90;;
40959;SDS011;27842;52.272;8.052;2023-02-22T16:46:44;26.30;;;9.85;;
40959;SDS011;27842;52.272;8.052;2023-02-22T16:49:10;29.40;;;10.35;;
40959;SDS011;27842;52.272;8.052;2023-02-22T16:51:43;25.80;;;11.45;;
40959;SDS011;27842;52.272;8.052;2023-02-22T16:54:13;23.95;;;10.88;;
40959;SDS011;27842;52.272;8.052;2023-02-22T16:56:47;21.88;;;10.77;;
40959;SDS011;27842;52.272;8.052;2023-02-22T16:59:13;21.98;;;10.80;;
40959;SDS011;27842;52.272;8.052;2023-02-22T17:01:40;25.38;;;10.13;;
40959;SDS011;27842;52.272;8.052;2023-02-22T17:04:24;26.15;;;12.10;;
40959;SDS011;27842;52.272;8.052;2023-02-22T17:06:50;24.75;;;11.30;;
40959;SDS011;27842;52.272;8.052;2023-02-22T17:09:16;27.30;;;11.43;;
40959;SDS011;27842;52.272;8.052;2023-02-22T17:11:44;22.90;;;10.55;;